createdAt,value
2023-01-08T00:00:47.151Z,4.00
2023-01-08T00:05:32.816Z,3.98
2023-01-08T00:09:01.074Z,3.96
2023-01-08T00:10:04.633Z,3.94
2023-01-08T00:13:32.188Z,3.92
2023-01-08T00:14:34.868Z,3.91
2023-01-08T00:18:02.187Z,3.91
2023-01-08T00:19:05.195Z,3.85
2023-01-08T00:22:34.463Z,3.84
2023-01-08T00:23:38.121Z,3.82
2023-01-08T00:27:07.855Z,3.81
2023-01-08T00:28:10.842Z,3.83
2023-01-08T00:29:13.826Z,3.81
2023-01-08T00:32:22.013Z,3.77
2023-01-08T00:33:25.036Z,3.76
2023-01-08T00:34:28.153Z,3.76
2023-01-08T00:37:36.022Z,3.75
2023-01-08T00:38:38.767Z,3.74
2023-01-08T00:42:07.087Z,3.72
2023-01-08T00:43:09.919Z,3.73
2023-01-08T00:46:39.305Z,3.75
2023-01-08T00:47:42.354Z,3.74
2023-01-08T00:51:11.608Z,3.74
2023-01-08T00:52:14.315Z,3.74
2023-01-08T00:55:41.369Z,3.73
2023-01-08T00:56:44.241Z,3.75
2023-01-08T01:00:11.145Z,3.76
2023-01-08T01:01:15.892Z,3.75
2023-01-08T01:02:18.948Z,3.77
2023-01-08T01:03:22.271Z,3.74
2023-01-08T01:04:41.280Z,3.74
2023-01-08T01:05:43.988Z,3.73
2023-01-08T01:06:47.216Z,3.75
2023-01-08T01:10:08.968Z,3.72
2023-01-08T01:15:37.019Z,3.72
2023-01-08T01:16:41.737Z,3.75
2023-01-08T01:20:07.205Z,3.76
2023-01-08T01:21:26.807Z,3.75
2023-01-08T01:22:29.806Z,3.75
2023-01-08T01:25:38.295Z,3.74
2023-01-08T01:26:45.412Z,3.74
2023-01-08T01:31:12.600Z,3.70
2023-01-08T01:34:37.206Z,3.71
2023-01-08T01:35:40.204Z,3.70
2023-01-08T01:39:10.031Z,3.68
2023-01-08T01:40:12.754Z,3.69
2023-01-08T01:43:43.741Z,3.69
2023-01-08T01:44:46.566Z,3.69
2023-01-08T01:48:14.085Z,3.67
2023-01-08T01:49:23.042Z,3.67
2023-01-08T01:52:59.668Z,3.70
2023-01-08T01:54:05.020Z,3.65
2023-01-08T01:57:25.232Z,3.66
2023-01-08T01:58:30.251Z,3.65
2023-01-08T02:01:53.016Z,3.65
2023-01-08T02:02:56.559Z,3.63
2023-01-08T02:03:59.475Z,3.61
2023-01-08T02:05:02.733Z,3.61
2023-01-08T02:06:26.666Z,3.60
2023-01-08T02:07:41.492Z,3.61
2023-01-08T02:09:15.275Z,3.57
2023-01-08T02:10:40.266Z,3.57
2023-01-08T02:12:19.472Z,3.57
2023-01-08T02:13:33.711Z,3.55
2023-01-08T02:15:11.638Z,3.54
2023-01-08T02:16:28.381Z,3.52
2023-01-08T02:17:31.059Z,3.52
2023-01-08T02:18:57.970Z,3.52
2023-01-08T02:20:09.357Z,3.52
2023-01-08T02:21:20.100Z,3.51
2023-01-08T02:22:44.554Z,3.50
2023-01-08T02:23:58.287Z,3.51
2023-01-08T02:25:47.301Z,3.50
2023-01-08T02:26:55.320Z,3.48
2023-01-08T02:28:00.991Z,3.45
2023-01-08T02:29:08.154Z,3.45
2023-01-08T02:30:11.672Z,3.45
2023-01-08T02:31:16.718Z,3.42
2023-01-08T02:32:19.819Z,3.39
2023-01-08T02:33:24.501Z,3.38
2023-01-08T02:34:27.740Z,3.37
2023-01-08T02:39:07.844Z,3.41
2023-01-08T02:40:42.102Z,3.38
2023-01-08T02:41:50.166Z,3.38
2023-01-08T02:43:18.201Z,3.37
2023-01-08T02:44:30.189Z,3.39
2023-01-08T02:45:44.595Z,3.40
2023-01-08T02:46:51.060Z,3.39
2023-01-08T02:48:06.589Z,3.39
2023-01-08T02:49:13.393Z,3.38
2023-01-08T02:50:23.137Z,3.44
2023-01-08T02:51:34.386Z,3.44
2023-01-08T02:52:45.232Z,3.46
2023-01-08T02:53:52.527Z,3.45
2023-01-08T02:54:57.167Z,3.46
2023-01-08T02:56:03.824Z,3.46
2023-01-08T02:57:12.579Z,3.48
2023-01-08T02:58:16.256Z,3.48
2023-01-08T02:59:21.147Z,3.47
2023-01-08T03:00:24.445Z,3.49
2023-01-08T03:01:28.971Z,3.47
2023-01-08T03:02:35.328Z,3.49
2023-01-08T03:03:41.839Z,3.50
2023-01-08T03:04:54.661Z,3.52
2023-01-08T03:06:03.728Z,3.49
2023-01-08T03:07:06.836Z,3.52
2023-01-08T03:08:11.993Z,3.47
2023-01-08T03:09:16.684Z,3.52
2023-01-08T03:10:24.433Z,3.53
2023-01-08T03:11:34.203Z,3.55
2023-01-08T03:12:43.584Z,3.52
2023-01-08T03:14:15.973Z,3.57
2023-01-08T03:15:33.516Z,3.56
2023-01-08T03:16:39.765Z,3.57
2023-01-08T03:17:50.628Z,3.58
2023-01-08T03:19:01.435Z,3.58
2023-01-08T03:20:12.077Z,3.56
2023-01-08T03:21:17.622Z,3.60
2023-01-08T03:22:22.502Z,3.61
2023-01-08T03:23:27.369Z,3.62
2023-01-08T03:24:34.364Z,3.63
2023-01-08T03:25:43.480Z,3.65
2023-01-08T03:26:47.809Z,3.65
2023-01-08T03:27:55.964Z,3.59
2023-01-08T03:29:01.096Z,3.66
2023-01-08T03:30:06.605Z,3.66
2023-01-08T03:31:10.380Z,3.65
2023-01-08T03:32:17.118Z,3.66
2023-01-08T03:33:22.094Z,3.65
2023-01-08T03:34:27.044Z,3.68
2023-01-08T03:35:32.846Z,3.67
2023-01-08T03:36:37.835Z,3.67
2023-01-08T03:37:45.713Z,3.68
2023-01-08T03:39:07.902Z,3.65
2023-01-08T03:40:17.723Z,3.67
2023-01-08T03:41:24.879Z,3.63
2023-01-08T03:42:31.258Z,3.69
2023-01-08T03:43:34.080Z,3.68
2023-01-08T03:44:36.847Z,3.69
2023-01-08T03:45:47.532Z,3.69
2023-01-08T03:46:54.368Z,3.69
2023-01-08T03:47:58.648Z,3.69
2023-01-08T03:49:03.613Z,3.69
2023-01-08T03:50:11.299Z,3.68
2023-01-08T03:51:14.145Z,3.67
2023-01-08T03:52:26.220Z,3.69
2023-01-08T03:53:28.949Z,3.67
2023-01-08T03:54:33.852Z,3.65
2023-01-08T03:55:36.629Z,3.63
2023-01-08T03:56:39.496Z,3.66
2023-01-08T03:57:42.486Z,3.67
2023-01-08T03:58:45.384Z,3.69
2023-01-08T03:59:48.493Z,3.66
2023-01-08T04:00:51.275Z,3.68
2023-01-08T04:01:54.726Z,3.67
2023-01-08T04:02:57.605Z,3.67
2023-01-08T04:04:00.385Z,3.67
2023-01-08T04:05:03.215Z,3.64
2023-01-08T04:06:06.144Z,3.70
2023-01-08T04:07:11.788Z,3.67
2023-01-08T04:08:14.596Z,3.69
2023-01-08T04:09:17.540Z,3.69
2023-01-08T04:10:20.425Z,3.70
2023-01-08T04:11:23.365Z,3.72
2023-01-08T04:12:26.404Z,3.71
2023-01-08T04:13:29.078Z,3.73
2023-01-08T04:14:31.814Z,3.73
2023-01-08T04:15:34.874Z,3.73
2023-01-08T04:16:38.057Z,3.75
2023-01-08T04:17:41.298Z,3.70
2023-01-08T04:18:44.040Z,3.75
2023-01-08T04:19:46.739Z,3.73
2023-01-08T04:20:49.530Z,3.76
2023-01-08T04:21:52.954Z,3.76
2023-01-08T04:22:56.915Z,3.76
2023-01-08T04:23:59.642Z,3.77
2023-01-08T04:25:02.457Z,3.75
2023-01-08T04:26:08.637Z,3.74
2023-01-08T04:27:11.519Z,3.73
2023-01-08T04:28:14.777Z,3.75
2023-01-08T04:29:18.135Z,3.76
2023-01-08T04:30:20.837Z,3.77
2023-01-08T04:31:23.889Z,3.75
2023-01-08T04:32:26.822Z,3.77
2023-01-08T04:33:29.799Z,3.78
2023-01-08T04:34:32.704Z,3.75
2023-01-08T04:35:35.532Z,3.64
2023-01-08T04:36:38.873Z,3.78
2023-01-08T04:37:41.542Z,3.77
2023-01-08T04:38:44.623Z,3.77
2023-01-08T04:39:47.368Z,3.78
2023-01-08T04:40:50.048Z,3.79
2023-01-08T04:41:52.779Z,3.79
2023-01-08T04:42:55.537Z,3.80
2023-01-08T04:43:58.489Z,3.79
2023-01-08T04:45:01.242Z,3.78
2023-01-08T04:46:07.699Z,3.79
2023-01-08T04:47:10.726Z,3.78
2023-01-08T04:48:13.638Z,3.76
2023-01-08T04:49:16.966Z,3.77
2023-01-08T04:50:19.700Z,3.76
2023-01-08T04:51:23.364Z,3.76
2023-01-08T04:52:27.792Z,3.77
2023-01-08T04:53:33.651Z,3.76
2023-01-08T04:54:36.695Z,3.73
2023-01-08T04:55:39.904Z,3.74
2023-01-08T04:56:42.785Z,3.70
2023-01-08T04:57:45.550Z,3.71
2023-01-08T04:58:48.479Z,3.72
2023-01-08T04:59:51.534Z,3.73
2023-01-08T05:00:54.633Z,3.75
2023-01-08T05:01:58.513Z,3.74
2023-01-08T05:03:02.107Z,3.74
2023-01-08T05:04:05.821Z,3.73
2023-01-08T05:05:09.230Z,3.70
2023-01-08T05:06:12.284Z,3.69
2023-01-08T05:07:15.326Z,3.69
2023-01-08T05:08:18.073Z,3.69
2023-01-08T05:09:20.840Z,3.67
2023-01-08T05:10:24.246Z,3.66
2023-01-08T05:11:26.983Z,3.64
2023-01-08T05:12:29.709Z,3.64
2023-01-08T05:13:35.010Z,3.67
2023-01-08T05:14:38.914Z,3.67
2023-01-08T05:15:42.067Z,3.62
2023-01-08T05:16:45.155Z,3.63
2023-01-08T05:17:47.902Z,3.65
2023-01-08T05:18:51.188Z,3.65
2023-01-08T05:19:53.972Z,3.64
2023-01-08T05:21:05.246Z,3.57
2023-01-08T05:22:07.955Z,3.56
2023-01-08T05:23:10.759Z,3.56
2023-01-08T05:24:13.485Z,3.57
2023-01-08T05:25:16.289Z,3.59
2023-01-08T05:26:19.585Z,3.59
2023-01-08T05:27:22.841Z,3.57
2023-01-08T05:28:26.553Z,3.54
2023-01-08T05:29:29.246Z,3.56
2023-01-08T05:30:32.004Z,3.58
2023-01-08T05:31:35.592Z,3.57
2023-01-08T05:32:38.736Z,3.57
2023-01-08T05:33:41.531Z,3.58
2023-01-08T05:34:45.350Z,3.58
2023-01-08T05:35:48.081Z,3.61
2023-01-08T05:36:51.157Z,3.62
2023-01-08T05:37:54.005Z,3.60
2023-01-08T05:38:57.024Z,3.62
2023-01-08T05:39:59.774Z,3.61
2023-01-08T05:41:02.532Z,3.62
2023-01-08T05:42:05.717Z,3.63
2023-01-08T05:43:27.138Z,3.65
2023-01-08T05:44:31.013Z,3.57
2023-01-08T05:45:34.325Z,3.62
2023-01-08T05:46:37.543Z,3.62
2023-01-08T05:47:40.815Z,3.62
2023-01-08T05:48:43.775Z,3.62
2023-01-08T05:49:46.524Z,3.65
2023-01-08T05:50:50.606Z,3.64
2023-01-08T05:51:53.332Z,3.58
2023-01-08T05:52:56.309Z,3.59
2023-01-08T05:53:59.074Z,3.58
2023-01-08T05:55:01.832Z,3.57
2023-01-08T05:56:09.155Z,3.59
2023-01-08T05:57:12.413Z,3.59
2023-01-08T05:58:19.174Z,3.59
2023-01-08T05:59:22.180Z,3.61
2023-01-08T06:00:26.452Z,3.61
2023-01-08T06:01:29.585Z,3.57
2023-01-08T06:02:32.467Z,3.59
2023-01-08T06:03:35.274Z,3.57
2023-01-08T06:04:38.116Z,3.59
2023-01-08T06:05:40.883Z,3.60
2023-01-08T06:06:43.993Z,3.61
2023-01-08T06:07:46.748Z,3.62
2023-01-08T06:08:49.524Z,3.62
2023-01-08T06:09:52.380Z,3.57
2023-01-08T06:10:58.855Z,3.57
2023-01-08T06:12:02.127Z,3.55
2023-01-08T06:13:09.716Z,3.52
2023-01-08T06:14:15.541Z,3.47
2023-01-08T06:15:19.102Z,3.46
2023-01-08T06:16:23.354Z,3.50
2023-01-08T06:17:27.012Z,3.50
2023-01-08T06:18:31.852Z,3.51
2023-01-08T06:19:34.956Z,3.53
2023-01-08T06:20:37.752Z,3.54
2023-01-08T06:21:40.533Z,3.54
2023-01-08T06:22:43.611Z,3.53
2023-01-08T06:23:46.428Z,3.54
2023-01-08T06:24:49.668Z,3.52
2023-01-08T06:25:57.078Z,3.40
2023-01-08T06:26:59.776Z,3.46
2023-01-08T06:28:04.301Z,3.28
2023-01-08T06:29:07.392Z,3.16
2023-01-08T06:30:10.465Z,3.20
2023-01-08T06:31:13.283Z,3.20
2023-01-08T06:32:16.241Z,3.17
2023-01-08T06:33:21.589Z,3.01
2023-01-08T06:34:24.551Z,3.00
2023-01-08T06:35:27.885Z,3.05
2023-01-08T06:36:31.388Z,3.14
2023-01-08T06:37:34.717Z,3.18
2023-01-08T06:38:38.529Z,3.16
2023-01-08T06:39:41.579Z,3.15
2023-01-08T06:40:44.783Z,3.19
2023-01-08T06:41:47.523Z,3.24
2023-01-08T06:42:50.557Z,3.20
2023-01-08T06:43:53.814Z,3.20
2023-01-08T06:44:56.771Z,3.17
2023-01-08T06:46:00.058Z,3.10
2023-01-08T06:47:03.018Z,3.10
2023-01-08T06:48:06.974Z,3.16
2023-01-08T06:49:10.274Z,3.24
2023-01-08T06:50:13.686Z,3.24
2023-01-08T06:51:16.727Z,3.21
2023-01-08T06:52:19.825Z,3.20
2023-01-08T06:53:23.520Z,3.20
2023-01-08T06:54:26.540Z,3.11
2023-01-08T06:55:29.324Z,3.18
2023-01-08T06:56:35.680Z,3.19
2023-01-08T06:57:42.793Z,3.19
2023-01-08T06:58:45.690Z,3.17
2023-01-08T06:59:49.067Z,3.11
2023-01-08T07:00:52.275Z,3.13
2023-01-08T07:01:55.269Z,3.15
2023-01-08T07:02:58.571Z,3.09
2023-01-08T07:04:01.677Z,3.16
2023-01-08T07:05:05.086Z,3.23
2023-01-08T07:06:13.152Z,3.28
2023-01-08T07:07:16.124Z,3.29
2023-01-08T07:08:19.195Z,3.34
2023-01-08T07:09:21.889Z,3.36
2023-01-08T07:10:27.628Z,3.38
2023-01-08T07:11:30.400Z,3.32
2023-01-08T07:12:33.793Z,3.31
2023-01-08T07:13:36.541Z,3.32
2023-01-08T07:14:39.884Z,3.27
2023-01-08T07:15:43.944Z,3.34
2023-01-08T07:16:46.770Z,3.31
2023-01-08T07:17:49.493Z,3.33
2023-01-08T07:18:52.185Z,3.35
2023-01-08T07:19:55.069Z,3.38
2023-01-08T07:20:58.335Z,3.36
2023-01-08T07:22:02.209Z,3.36
2023-01-08T07:23:10.960Z,3.38
2023-01-08T07:24:13.938Z,3.40
2023-01-08T07:25:16.819Z,3.39
2023-01-08T07:26:20.176Z,3.34
2023-01-08T07:27:22.946Z,3.39
2023-01-08T07:28:25.655Z,3.41
2023-01-08T07:29:28.667Z,3.41
2023-01-08T07:30:31.763Z,3.44
2023-01-08T07:31:34.892Z,3.46
2023-01-08T07:32:37.622Z,3.47
2023-01-08T07:33:40.386Z,3.41
2023-01-08T07:34:43.169Z,3.43
2023-01-08T07:35:52.736Z,3.49
2023-01-08T07:36:55.747Z,3.49
2023-01-08T07:37:58.738Z,3.48
2023-01-08T07:39:01.946Z,3.48
2023-01-08T07:40:05.508Z,3.47
2023-01-08T07:41:08.342Z,3.48
2023-01-08T07:42:11.403Z,3.48
2023-01-08T07:43:14.813Z,3.50
2023-01-08T07:44:17.649Z,3.52
2023-01-08T07:45:20.433Z,3.49
2023-01-08T07:46:23.192Z,3.48
2023-01-08T07:47:26.765Z,3.48
2023-01-08T07:48:29.590Z,3.48
2023-01-08T07:49:32.395Z,3.50
2023-01-08T07:50:37.193Z,3.47
2023-01-08T07:51:39.906Z,3.43
2023-01-08T07:52:44.225Z,3.40
2023-01-08T07:53:47.262Z,3.39
2023-01-08T07:54:49.934Z,3.46
2023-01-08T07:55:52.638Z,3.49
2023-01-08T07:56:55.358Z,3.49
2023-01-08T07:57:58.843Z,3.49
2023-01-08T07:59:01.657Z,3.36
2023-01-08T08:00:05.399Z,3.18
2023-01-08T08:01:11.448Z,3.20
2023-01-08T08:02:14.608Z,3.11
2023-01-08T08:03:17.663Z,3.02
2023-01-08T08:04:20.523Z,3.10
2023-01-08T08:05:23.213Z,3.06
2023-01-08T08:06:26.065Z,3.04
2023-01-08T08:07:31.600Z,3.06
2023-01-08T08:08:35.015Z,3.10
2023-01-08T08:09:38.321Z,3.12
2023-01-08T08:10:42.814Z,3.10
2023-01-08T08:11:45.506Z,3.04
2023-01-08T08:12:48.542Z,3.09
2023-01-08T08:13:52.950Z,3.09
2023-01-08T08:14:56.154Z,3.13
2023-01-08T08:16:03.448Z,3.17
2023-01-08T08:17:06.275Z,3.08
2023-01-08T08:18:10.202Z,2.88
2023-01-08T08:19:13.400Z,2.88
2023-01-08T08:20:16.766Z,2.90
2023-01-08T08:21:19.555Z,2.93
2023-01-08T08:22:22.240Z,3.01
2023-01-08T08:23:25.875Z,2.83
2023-01-08T08:24:28.590Z,2.90
2023-01-08T08:25:31.411Z,3.00
2023-01-08T08:26:34.259Z,3.07
2023-01-08T08:27:37.196Z,3.05
2023-01-08T08:28:40.501Z,3.02
2023-01-08T08:29:43.295Z,2.99
2023-01-08T08:30:46.309Z,2.92
2023-01-08T08:31:49.183Z,2.93
2023-01-08T08:32:52.026Z,2.91
2023-01-08T08:33:55.108Z,2.93
2023-01-08T08:34:57.860Z,2.99
2023-01-08T08:36:00.707Z,3.07
2023-01-08T08:37:03.473Z,3.11
2023-01-08T08:38:06.288Z,3.15
2023-01-08T08:39:09.845Z,3.12
2023-01-08T08:40:15.574Z,3.16
2023-01-08T08:41:18.912Z,3.24
2023-01-08T08:42:21.743Z,3.31
2023-01-08T08:43:24.602Z,3.34
2023-01-08T08:44:27.702Z,3.38
2023-01-08T08:45:30.702Z,3.44
2023-01-08T08:46:33.536Z,3.46
2023-01-08T08:47:36.731Z,3.49
2023-01-08T08:48:40.166Z,3.53
2023-01-08T08:49:43.226Z,3.52
2023-01-08T08:50:46.400Z,3.32
2023-01-08T08:51:49.226Z,3.12
2023-01-08T08:52:52.231Z,3.23
2023-01-08T08:53:55.194Z,3.33
2023-01-08T08:54:58.314Z,3.38
2023-01-08T08:56:01.094Z,3.33
2023-01-08T08:57:03.947Z,3.27
2023-01-08T08:58:11.089Z,3.29
2023-01-08T08:59:14.118Z,3.34
2023-01-08T09:00:17.403Z,3.39
2023-01-08T09:01:20.240Z,3.44
2023-01-08T09:02:23.160Z,3.48
2023-01-08T09:03:26.303Z,3.40
2023-01-08T09:04:33.885Z,3.41
2023-01-08T09:05:37.536Z,3.39
2023-01-08T09:06:40.354Z,3.43
2023-01-08T09:07:43.095Z,3.45
2023-01-08T09:08:45.912Z,3.45
2023-01-08T09:09:49.036Z,3.44
2023-01-08T09:10:52.373Z,3.53
2023-01-08T09:11:56.247Z,3.57
2023-01-08T09:12:59.055Z,3.56
2023-01-08T09:14:02.186Z,3.56
2023-01-08T09:15:05.486Z,3.52
2023-01-08T09:16:08.586Z,3.51
2023-01-08T09:17:11.654Z,3.41
2023-01-08T09:18:16.045Z,3.57
2023-01-08T09:19:18.899Z,3.56
2023-01-08T09:20:22.960Z,3.61
2023-01-08T09:21:26.695Z,3.64
2023-01-08T09:22:29.542Z,3.61
2023-01-08T09:23:32.243Z,3.48
2023-01-08T09:24:35.038Z,3.49
2023-01-08T09:25:37.800Z,3.54
2023-01-08T09:26:41.091Z,3.59
2023-01-08T09:27:44.409Z,3.54
2023-01-08T09:28:47.575Z,3.51
2023-01-08T09:29:50.284Z,3.58
2023-01-08T09:30:53.128Z,3.63
2023-01-08T09:31:57.590Z,3.65
2023-01-08T09:33:03.087Z,3.66
2023-01-08T09:34:06.047Z,3.69
2023-01-08T09:35:09.291Z,3.64
2023-01-08T09:36:12.272Z,3.65
2023-01-08T09:37:15.295Z,3.60
2023-01-08T09:38:18.044Z,3.65
2023-01-08T09:39:20.953Z,3.69
2023-01-08T09:40:28.908Z,3.71
2023-01-08T09:41:35.225Z,3.61
2023-01-08T09:42:38.822Z,3.56
2023-01-08T09:43:45.196Z,3.55
2023-01-08T09:44:50.424Z,3.63
2023-01-08T09:45:58.328Z,3.69
2023-01-08T09:47:01.318Z,3.72
2023-01-08T09:48:12.761Z,3.70
2023-01-08T09:49:22.627Z,3.61
2023-01-08T09:50:27.968Z,3.68
2023-01-08T09:51:37.219Z,3.70
2023-01-08T09:52:42.160Z,3.73
2023-01-08T09:53:55.199Z,3.72
2023-01-08T09:54:58.463Z,3.70
2023-01-08T09:56:10.157Z,3.73
2023-01-08T09:57:21.872Z,3.73
2023-01-08T09:58:38.576Z,3.68
2023-01-08T09:59:42.031Z,3.55
2023-01-08T10:00:45.195Z,3.62
2023-01-08T10:01:48.941Z,3.60
2023-01-08T10:02:54.421Z,3.56
2023-01-08T10:04:06.491Z,3.54
2023-01-08T10:05:18.423Z,3.52
2023-01-08T10:06:24.181Z,3.48
2023-01-08T10:07:30.734Z,3.53
2023-01-08T10:08:34.221Z,3.58
2023-01-08T10:09:37.597Z,3.60
2023-01-08T10:10:41.834Z,3.61
2023-01-08T10:11:47.693Z,3.62
2023-01-08T10:12:53.205Z,3.64
2023-01-08T10:13:57.835Z,3.64
2023-01-08T10:15:05.054Z,3.63
2023-01-08T10:16:27.969Z,3.67
2023-01-08T10:17:34.895Z,3.71
2023-01-08T10:18:40.936Z,3.71
2023-01-08T10:19:46.037Z,3.62
2023-01-08T10:20:49.371Z,3.59
2023-01-08T10:21:53.587Z,3.69
2023-01-08T10:23:08.387Z,3.71
2023-01-08T10:24:12.171Z,3.69
2023-01-08T10:25:20.701Z,3.71
2023-01-08T10:26:32.616Z,3.60
2023-01-08T10:27:46.737Z,3.57
2023-01-08T10:28:49.441Z,3.57
2023-01-08T10:29:52.634Z,3.62
2023-01-08T10:31:17.105Z,3.63
2023-01-08T10:32:29.441Z,3.69
2023-01-08T10:33:42.616Z,3.69
2023-01-08T10:34:55.706Z,3.64
2023-01-08T10:36:06.599Z,3.48
2023-01-08T10:37:29.246Z,3.65
2023-01-08T10:38:34.725Z,3.68
2023-01-08T10:39:38.161Z,3.70
2023-01-08T10:40:47.935Z,3.68
2023-01-08T10:41:53.982Z,3.70
2023-01-08T10:43:05.755Z,3.69
2023-01-08T10:44:16.921Z,3.65
2023-01-08T10:45:28.667Z,3.64
2023-01-08T10:46:44.479Z,3.74
2023-01-08T10:47:50.977Z,3.78
2023-01-08T10:48:57.722Z,3.83
2023-01-08T10:50:04.821Z,3.88
2023-01-08T10:51:17.228Z,3.89
2023-01-08T10:52:29.452Z,3.85
2023-01-08T10:53:33.439Z,3.91
2023-01-08T10:54:41.038Z,3.92
2023-01-08T10:55:43.789Z,3.93
2023-01-08T10:56:46.599Z,3.88
2023-01-08T10:58:01.750Z,3.95
2023-01-08T10:59:04.762Z,3.98
2023-01-08T11:00:23.536Z,4.00
2023-01-08T11:01:29.373Z,4.01
2023-01-08T11:02:39.251Z,4.06
2023-01-08T11:03:43.066Z,4.07
2023-01-08T11:04:52.208Z,4.09
2023-01-08T11:05:55.864Z,4.12
2023-01-08T11:07:05.074Z,4.10
2023-01-08T11:08:16.560Z,4.11
2023-01-08T11:09:22.368Z,4.13
2023-01-08T11:10:27.963Z,4.08
2023-01-08T11:11:35.573Z,4.15
2023-01-08T11:12:40.839Z,4.14
2023-01-08T11:13:56.651Z,4.10
2023-01-08T11:15:00.220Z,4.14
2023-01-08T11:16:06.772Z,4.11
2023-01-08T11:17:11.783Z,4.11
2023-01-08T11:18:27.301Z,4.10
2023-01-08T11:19:32.294Z,4.11
2023-01-08T11:20:35.761Z,4.12
2023-01-08T11:21:38.823Z,4.10
2023-01-08T11:22:41.567Z,4.11
2023-01-08T11:23:45.067Z,4.14
2023-01-08T11:24:49.427Z,4.15
2023-01-08T11:26:20.724Z,4.18
2023-01-08T11:27:30.042Z,4.15
2023-01-08T11:29:06.873Z,4.21
2023-01-08T11:30:32.381Z,4.13
2023-01-08T11:31:56.272Z,4.24
2023-01-08T11:33:02.107Z,4.29
2023-01-08T11:34:28.799Z,4.29
2023-01-08T11:36:16.568Z,4.28
2023-01-08T11:37:27.449Z,4.31
2023-01-08T11:38:35.452Z,4.37
2023-01-08T11:39:39.199Z,4.24
2023-01-08T11:40:50.485Z,4.35
2023-01-08T11:42:21.435Z,4.33
2023-01-08T11:43:49.376Z,4.33
2023-01-08T11:45:26.972Z,4.35
2023-01-08T11:46:42.933Z,4.42
2023-01-08T11:47:59.799Z,4.42
2023-01-08T11:49:05.103Z,4.45
2023-01-08T11:50:46.592Z,4.46
2023-01-08T11:52:00.836Z,4.51
2023-01-08T11:53:06.182Z,4.53
2023-01-08T11:54:21.071Z,4.56
2023-01-08T11:55:30.076Z,4.56
2023-01-08T11:56:57.392Z,4.52
2023-01-08T11:58:09.123Z,4.52
2023-01-08T12:01:52.557Z,4.58
2023-01-08T12:03:02.939Z,4.54
2023-01-08T12:04:50.233Z,4.48
2023-01-08T12:06:10.833Z,4.44
2023-01-08T12:07:24.448Z,4.47
2023-01-08T12:08:40.098Z,4.46
2023-01-08T12:09:48.435Z,4.43
2023-01-08T12:11:17.560Z,4.40
2023-01-08T12:12:45.309Z,4.40
2023-01-08T12:14:06.975Z,4.43
2023-01-08T12:15:47.340Z,4.43
2023-01-08T12:16:59.386Z,4.41
2023-01-08T12:18:08.456Z,4.41
2023-01-08T12:19:25.437Z,4.36
2023-01-08T12:20:43.759Z,4.39
2023-01-08T12:21:46.404Z,4.43
2023-01-08T12:23:06.315Z,4.46
2023-01-08T12:24:19.617Z,4.46
2023-01-08T12:25:23.291Z,4.42
2023-01-08T12:26:47.690Z,4.43
2023-01-08T12:28:21.970Z,4.41
2023-01-08T12:29:42.740Z,4.43
2023-01-08T12:31:01.325Z,4.38
2023-01-08T12:32:10.622Z,4.41
2023-01-08T12:33:45.883Z,4.41
2023-01-08T12:35:13.639Z,4.35
2023-01-08T12:36:23.661Z,4.37
2023-01-08T12:37:29.720Z,4.38
2023-01-08T12:38:36.170Z,4.38
2023-01-08T12:39:53.578Z,4.38
2023-01-08T12:41:00.511Z,4.40
2023-01-08T12:42:13.700Z,4.42
2023-01-08T12:43:28.971Z,4.40
2023-01-08T12:44:32.659Z,4.46
2023-01-08T12:45:40.818Z,4.45
2023-01-08T12:46:48.083Z,4.44
2023-01-08T12:47:56.860Z,4.50
2023-01-08T12:49:00.941Z,4.43
2023-01-08T12:50:28.023Z,4.45
2023-01-08T12:51:55.324Z,4.51
2023-01-08T12:53:27.389Z,4.57
2023-01-08T12:54:59.455Z,4.60
2023-01-08T12:56:14.462Z,4.59
2023-01-08T12:57:22.673Z,4.61
2023-01-08T12:58:37.753Z,4.63
2023-01-08T12:59:53.000Z,4.62
2023-01-08T13:01:35.126Z,4.63
2023-01-08T13:02:56.612Z,4.63
2023-01-08T13:04:01.480Z,4.63
2023-01-08T13:05:19.261Z,4.64
2023-01-08T13:06:22.923Z,4.63
2023-01-08T13:07:38.673Z,4.62
2023-01-08T13:08:47.427Z,4.60
2023-01-08T13:10:28.412Z,4.61
2023-01-08T13:11:37.034Z,4.64
2023-01-08T13:12:41.273Z,4.61
2023-01-08T13:13:45.356Z,4.58
2023-01-08T13:14:51.498Z,4.60
2023-01-08T13:16:07.275Z,4.62
2023-01-08T13:17:21.423Z,4.65
2023-01-08T13:18:33.041Z,4.63
2023-01-08T13:19:51.286Z,4.64
2023-01-08T13:20:58.557Z,4.65
2023-01-08T13:22:02.161Z,4.67
2023-01-08T13:23:06.129Z,4.65
2023-01-08T13:24:29.786Z,4.71
2023-01-08T13:25:38.832Z,4.73
2023-01-08T13:26:42.717Z,4.74
2023-01-08T13:27:46.850Z,4.75
2023-01-08T13:28:50.494Z,4.78
2023-01-08T13:29:53.763Z,4.77
2023-01-08T13:31:25.992Z,4.77
2023-01-08T13:32:47.446Z,4.79
2023-01-08T13:33:52.839Z,4.79
2023-01-08T13:35:22.103Z,4.77
2023-01-08T13:36:32.202Z,4.78
2023-01-08T13:37:35.280Z,4.76
2023-01-08T13:38:38.327Z,4.76
2023-01-08T13:39:41.790Z,4.76
2023-01-08T13:40:44.640Z,4.46
2023-01-08T13:41:58.113Z,4.77
2023-01-08T13:43:03.052Z,4.76
2023-01-08T13:44:35.970Z,4.71
2023-01-08T13:45:39.143Z,4.75
2023-01-08T13:46:42.389Z,4.76
2023-01-08T13:47:47.001Z,4.74
2023-01-08T13:49:19.689Z,4.76
2023-01-08T13:50:26.111Z,4.77
2023-01-08T13:51:39.593Z,4.76
2023-01-08T13:52:45.451Z,4.76
2023-01-08T13:53:48.308Z,4.77
2023-01-08T13:54:51.915Z,4.72
2023-01-08T13:56:02.960Z,4.78
2023-01-08T13:57:13.319Z,4.78
2023-01-08T13:58:20.841Z,4.77
2023-01-08T13:59:41.864Z,4.77
2023-01-08T14:00:51.530Z,4.78
2023-01-08T14:01:56.157Z,4.78
2023-01-08T14:02:59.245Z,4.79
2023-01-08T14:04:02.355Z,4.80
2023-01-08T14:05:19.757Z,4.78
2023-01-08T14:06:25.508Z,4.80
2023-01-08T14:07:28.678Z,4.83
2023-01-08T14:08:31.709Z,4.80
2023-01-08T14:09:37.802Z,4.79
2023-01-08T14:10:40.740Z,4.80
2023-01-08T14:11:46.669Z,4.80
2023-01-08T14:12:51.491Z,4.80
2023-01-08T14:13:55.073Z,4.79
2023-01-08T14:15:04.344Z,4.81
2023-01-08T14:16:13.193Z,4.80
2023-01-08T14:17:18.246Z,4.78
2023-01-08T14:18:21.735Z,4.78
2023-01-08T14:19:26.134Z,4.76
2023-01-08T14:20:36.006Z,4.73
2023-01-08T14:21:39.067Z,4.78
2023-01-08T14:22:43.084Z,4.79
2023-01-08T14:23:48.689Z,4.78
2023-01-08T14:24:56.956Z,4.76
2023-01-08T14:26:04.109Z,4.77
2023-01-08T14:27:21.316Z,4.73
2023-01-08T14:28:24.272Z,4.77
2023-01-08T14:29:30.859Z,4.78
2023-01-08T14:30:34.068Z,4.77
2023-01-08T14:31:37.150Z,4.79
2023-01-08T14:32:43.843Z,4.78
2023-01-08T14:33:48.184Z,4.77
2023-01-08T14:34:53.646Z,4.79
2023-01-08T14:35:57.414Z,4.79
2023-01-08T14:37:00.364Z,4.79
2023-01-08T14:38:03.579Z,4.80
2023-01-08T14:39:38.412Z,4.82
2023-01-08T14:40:47.932Z,4.81
2023-01-08T14:42:14.029Z,4.82
2023-01-08T14:43:20.725Z,4.80
2023-01-08T14:44:37.039Z,4.84
2023-01-08T14:45:51.715Z,4.78
2023-01-08T14:46:55.335Z,4.83
2023-01-08T14:48:09.803Z,4.84
2023-01-08T14:49:31.275Z,4.85
2023-01-08T14:50:37.392Z,4.85
2023-01-08T14:51:41.140Z,4.84
2023-01-08T14:52:44.339Z,4.81
2023-01-08T14:54:03.205Z,4.83
2023-01-08T14:55:06.965Z,4.80
2023-01-08T14:56:14.418Z,4.80
2023-01-08T14:57:19.714Z,4.80
2023-01-08T14:58:25.679Z,4.81
2023-01-08T14:59:35.500Z,4.80
2023-01-08T15:00:39.209Z,4.75
2023-01-08T15:01:42.510Z,4.79
2023-01-08T15:02:48.038Z,4.75
2023-01-08T15:03:52.764Z,4.79
2023-01-08T15:05:03.977Z,4.77
2023-01-08T15:06:07.605Z,4.78
2023-01-08T15:07:27.646Z,4.77
2023-01-08T15:08:41.304Z,4.78
2023-01-08T15:09:55.096Z,4.77
2023-01-08T15:11:00.623Z,4.77
2023-01-08T15:12:06.343Z,4.80
2023-01-08T15:13:24.747Z,4.79
2023-01-08T15:14:33.479Z,4.77
2023-01-08T15:15:52.343Z,4.79
2023-01-08T15:16:58.267Z,4.79
2023-01-08T15:18:01.716Z,4.79
2023-01-08T15:19:14.430Z,4.81
2023-01-08T15:20:21.395Z,4.82
2023-01-08T15:21:24.555Z,4.80
2023-01-08T15:22:33.002Z,4.82
2023-01-08T15:23:50.650Z,4.83
2023-01-08T15:25:02.967Z,4.83
2023-01-08T15:26:11.012Z,4.80
2023-01-08T15:27:20.019Z,4.80
2023-01-08T15:28:23.636Z,4.80
2023-01-08T15:29:33.175Z,4.79
2023-01-08T15:30:45.781Z,4.80
2023-01-08T15:31:51.417Z,4.80
2023-01-08T15:33:07.108Z,4.80
2023-01-08T15:34:14.334Z,4.78
2023-01-08T15:35:19.877Z,4.78
2023-01-08T15:36:26.993Z,4.78
2023-01-08T15:37:30.709Z,4.78
2023-01-08T15:38:36.771Z,4.77
2023-01-08T15:39:39.909Z,4.78
2023-01-08T15:40:43.059Z,4.77
2023-01-08T15:42:04.627Z,4.79
2023-01-08T15:43:12.657Z,4.79
2023-01-08T15:44:16.852Z,4.78
2023-01-08T15:45:32.590Z,4.78
2023-01-08T15:46:35.583Z,4.74
2023-01-08T15:47:38.261Z,4.77
2023-01-08T15:48:43.856Z,4.77
2023-01-08T15:49:46.809Z,4.76
2023-01-08T15:50:50.128Z,4.69
2023-01-08T15:51:55.350Z,4.76
2023-01-08T15:53:01.714Z,4.73
2023-01-08T15:54:05.079Z,4.70
2023-01-08T15:55:10.476Z,4.77
2023-01-08T15:56:13.354Z,4.75
2023-01-08T15:57:16.621Z,4.75
2023-01-08T15:58:19.847Z,4.75
2023-01-08T15:59:23.262Z,4.71
2023-01-08T16:00:26.588Z,4.76
2023-01-08T16:01:32.261Z,4.75
2023-01-08T16:02:49.573Z,4.71
2023-01-08T16:04:00.111Z,4.76
2023-01-08T16:05:04.384Z,4.76